Terminal Aerodrome Forecast
Issued by NWS

Home | Current Version | Previous Version | Text Only | Print | Product List | Glossary On
Versions: 1 2 3 4 5 6 7 8 9 10 11 12 13 14 15 16 17 18 19
111
FTUS42 KMLB 272004 AAB
TAFISM
TAF AMD
KISM 272004Z 2720/2818 15009KT P6SM FEW045 BKN080
     FM280000 11006KT P6SM SCT040
     FM280800 13003KT P6SM SCT008
      TEMPO 2809/2812 2SM BR BKN008
     FM281500 13008KT P6SM SCT025=

USA.gov is the U.S. government's official web portal to all federal, state and local government web resources and services.